Aviation Digital Data Service (ADDS)

Output produced by METARs form (0142 UTC 23 November 2017)
found at http://www.aviationweather.gov/adds/metars/
 
LDDU 230130Z 08007KT 9999 SCT026 BKN045 11/07 Q1022
TAF LDDU 222325Z 2300/2400 08006KT 9999 SCT030 BKN050 TX14/2312Z TN07/2305Z
       
LDOS 230130Z 22006KT CAVOK 05/03 Q1017
TAF LDOS 222325Z 2300/2400 23007KT CAVOK TX15/2313Z TN04/2305Z
       
LDPL 230130Z AUTO 11004KT 9999 OVC057/// 10/10 Q1020
TAF LDPL 222325Z 2300/2400 VRB02KT 9999 BKN035 TX14/2310Z TN08/2323Z 
     PROB30 
     TEMPO 2300/2314 26006KT 3000 -RA BR BKN010 BKN030
       
TAF COR LDRI 221119Z 2212/2312 14007KT 9999 SCT015 BKN030 TX15/2213Z TN10/2304Z 
     PROB30 
     TEMPO 2218/2312 RA
       
LDDU 230130Z 08007KT 9999 SCT026 BKN045 11/07 Q1022
TAF LDDU 222325Z 2300/2400 08006KT 9999 SCT030 BKN050 TX14/2312Z TN07/2305Z
       
LDOS 230130Z 22006KT CAVOK 05/03 Q1017
TAF LDOS 222325Z 2300/2400 23007KT CAVOK TX15/2313Z TN04/2305Z
       
LDPL 230130Z AUTO 11004KT 9999 OVC057/// 10/10 Q1020
TAF LDPL 222325Z 2300/2400 VRB02KT 9999 BKN035 TX14/2310Z TN08/2323Z 
     PROB30 
     TEMPO 2300/2314 26006KT 3000 -RA BR BKN010 BKN030
       
TAF COR LDRI 221119Z 2212/2312 14007KT 9999 SCT015 BKN030 TX15/2213Z TN10/2304Z 
     PROB30 
     TEMPO 2218/2312 RA
       
LDSP 230130Z AUTO 00000KT 9999 SCT026/// OVC059/// 09/07 Q1021
TAF LDSP 222325Z 2300/2400 08005KT 9999 BKN050 TX14/2312Z TN08/2305Z
       
LDZA 230130Z 22006KT CAVOK 05/04 Q1017 NOSIG
TAF LDZA 222325Z 2300/2400 24005KT CAVOK TX16/2313Z TN04/2305Z 
     PROB30 
     TEMPO 2302/2307 1500 BCFG 
     BECMG 2309/2311 23010KT 
     BECMG 2318/2320 VRB02KT
       
LDZD 230130Z 11004KT 080V140 9999 FEW025 SCT055 10/08 Q1021
TAF LDZD 222325Z 2300/2400 10004KT 9999 SCT050 TX14/2312Z TN09/2304Z 
     BECMG 2307/2309 12007KT 
     PROB30 
     TEMPO 2310/2316 4500 -RA
       
LDSP 230130Z AUTO 00000KT 9999 SCT026/// OVC059/// 09/07 Q1021
TAF LDSP 222325Z 2300/2400 08005KT 9999 BKN050 TX14/2312Z TN08/2305Z
       
LDZD 230130Z 11004KT 080V140 9999 FEW025 SCT055 10/08 Q1021
TAF LDZD 222325Z 2300/2400 10004KT 9999 SCT050 TX14/2312Z TN09/2304Z 
     BECMG 2307/2309 12007KT 
     PROB30 
     TEMPO 2310/2316 4500 -RA
       
LDZA 230130Z 22006KT CAVOK 05/04 Q1017 NOSIG
TAF LDZA 222325Z 2300/2400 24005KT CAVOK TX16/2313Z TN04/2305Z 
     PROB30 
     TEMPO 2302/2307 1500 BCFG 
     BECMG 2309/2311 23010KT 
     BECMG 2318/2320 VRB02KT